Riverside, CA

3:32 PM PDT on September 20, 2014 (GMT -0700)
Arlington Heights | Change Station
CLOSE
Current Station
Personal Weather Station
Location: Riverside, CA
Elevation: 788 ft
Nearby Weather Stations

Elev 788 ft 33.89 °N, 117.47 °W | Updated 29 minutes ago

Clear
Clear
79.9 °F
Feels Like 82 °F
N
3.0
Wind Variable Wind from WNW
Gusts 9.0 mph

Today
High -- | Low -- °F
--% Chance of Precip.
Yesterday
High -- | Low -- °F
Precip. -- in
6:36 AM 6:49 PM
Waning Crescent, 10% visible
Pressure 29.85 in
Visibility 10.0 miles
Clouds Clear
Heat Index 82 °F
Dew Point 66 °F
Humidity 62%
Rainfall -999.00 in
Snow Depth 0 in , 0 in , 0 in
UV 6 out of 12
Pollen 6.80 out of 12
Ozone Good
PM2.5 Moderate
Flu Activity Not available.
METAR KRAL 202153Z 26010G15KT 10SM CLR 27/16 A2989 RMK AO2 SLP106 T02670161

More Conditions Fewer Conditions

Pressure 29.85 in
Visibility 10.0 miles
Clouds Clear
Heat Index 82 °F
Dew Point 66 °F
Humidity 62%
Rainfall -999.00 in
Snow Depth 0 in , 0 in , 0 in
UV 6 out of 12
Pollen 6.80 out of 12
Ozone Good
PM2.5 Moderate
Flu Activity Not available.
METAR KRAL 202153Z 26010G15KT 10SM CLR 27/16 A2989 RMK AO2 SLP106 T02670161

More Conditions Fewer Conditions

10-Day Weather Forecast

Almanac

Astronomy

Sep. 20, 2014 Rise Set
Actual Time 6:36 AM PDT 6:49 PM PDT
Civil Twilight 6:11 AM PDT 7:14 PM PDT
Nautical Twilight 5:42 AM PDT 7:43 PM PDT
Astronomical Twilight 5:12 AM PDT 8:12 PM PDT
Moon 3:27 AM PDT 4:49 PM PDT
Length of Visible Light 13h 02m
Length of Day
12h 12m
Tomorrow will be 2m 5s shorter.
Waning Crescent, 10% of the Moon is Illuminated
Today
Waning Crescent
Sep 24
New
Oct 1
First Quarter
Oct 8
Full
Oct 15
Last Quarter

Today's Extremes

State Highs State Lows

Community

WunderPhotos

Upload Photos

1,754,967 photos uploaded!

WunderBlogs® & News

Nearby

Air Quality

  Air Quality AQ Index Pollutant
Yesterday Good
PM10
Yesterday Good
OZONE
Current Moderate
PM2.5
Current Good
OZONE
Sunday Good
PM10
Sunday Good
OZONE
Sunday Good
CO
Sunday Good
NO2

Snow Depth

Station Depth Elevation
Leavitt Meadows 0 in 7200 ft
Leavitt Lake 0 in 9400 ft
Summit Meadow 0 in 9122 ft
Monitor Pass 0 in 8350 ft
Adin Mountain 0 in 6200 ft

Earthquake Activity

City Distance Mag. Time & Date
Aguanga, California 48 miles 2.5 1:38 AM PDT
2014-09-19
Minimum magnitude displayed is 2.5.

Coastal Water Temperatures

Place Temperature
No Stations Reporting

Nearby Weather Stations